Time;durP1;ratioP1;P1;durP2;ratioP2;P2;SDS_P1;SDS_P2;PMS_P1;PMS_P2;Temp;Humidity;BMP_temperature;BMP_pressure;BME280_temperature;BME280_humidity;BME280_pressure;Samples;Min_cycle;Max_cycle;Signal;HPM_P1;HPM_P2
2022/12/22 03:28:08;;;;;;;7.87;7.17;;;6.20;99.90;;;;;;5010044;28;20910;-51
2022/12/22 03:30:35;;;;;;;8.80;8.00;;;6.10;99.90;;;;;;5010446;28;20571;-51
2022/12/22 03:33:03;;;;;;;10.67;9.40;;;6.20;99.90;;;;;;5011047;28;20563;-50
2022/12/22 03:35:30;;;;;;;13.37;8.17;;;6.20;99.90;;;;;;5008076;28;20897;-51
2022/12/22 03:37:57;;;;;;;8.90;8.07;;;6.30;99.90;;;;;;5013862;28;20546;-50
2022/12/22 03:40:29;;;;;;;10.03;9.03;;;6.30;99.90;;;;;;5011882;28;20458;-51
2022/12/22 03:48:25;;;;;;;8.50;7.80;;;6.20;99.90;;;;;;5016928;28;20455;-51
2022/12/22 03:50:51;;;;;;;7.77;7.00;;;6.30;99.90;;;;;;5008208;28;20578;-50
2022/12/22 03:53:18;;;;;;;9.50;8.60;;;6.20;99.90;;;;;;5008236;28;20909;-51
2022/12/22 03:55:44;;;;;;;8.33;7.70;;;6.20;99.90;;;;;;5006943;28;20980;-52
2022/12/22 03:58:11;;;;;;;8.17;7.47;;;6.20;99.90;;;;;;5006491;28;20548;-52
2022/12/22 04:00:37;;;;;;;8.37;7.40;;;6.20;99.90;;;;;;5007182;28;20568;-51
2022/12/22 04:03:04;;;;;;;10.20;7.27;;;6.20;99.90;;;;;;5009881;28;20544;-51
2022/12/22 04:05:32;;;;;;;8.13;7.43;;;6.20;99.90;;;;;;5008945;28;21032;-51
2022/12/22 04:07:58;;;;;;;8.50;7.67;;;6.20;99.90;;;;;;5005259;28;21036;-53
2022/12/22 04:13:09;;;;;;;8.60;7.00;;;6.20;99.90;;;;;;4997343;28;20531;-51
2022/12/22 04:15:35;;;;;;;8.53;7.73;;;6.20;99.90;;;;;;5008506;28;20496;-51
2022/12/22 04:18:02;;;;;;;7.03;6.53;;;6.20;99.90;;;;;;5014452;28;20563;-51
2022/12/22 04:20:29;;;;;;;8.60;7.83;;;6.20;99.90;;;;;;5013095;28;20493;-53
2022/12/22 04:22:57;;;;;;;7.90;7.17;;;6.20;99.90;;;;;;5005577;28;20548;-53
2022/12/22 04:25:24;;;;;;;8.23;7.50;;;6.20;99.90;;;;;;5007992;28;20506;-53
2022/12/22 04:27:51;;;;;;;7.50;6.97;;;6.20;99.90;;;;;;5006257;28;20990;-53
2022/12/22 04:30:18;;;;;;;8.70;8.00;;;6.20;99.90;;;;;;5019544;28;20569;-53
2022/12/22 04:32:45;;;;;;;9.13;8.33;;;6.10;99.90;;;;;;5012022;28;20559;-53
2022/12/22 04:35:12;;;;;;;8.07;7.37;;;6.10;99.90;;;;;;5011999;28;20460;-53
2022/12/22 04:37:38;;;;;;;7.77;7.17;;;6.00;99.90;;;;;;5012646;28;20997;-53
2022/12/22 04:40:07;;;;;;;7.90;7.20;;;5.90;99.90;;;;;;5007048;28;20563;-51
2022/12/22 04:42:34;;;;;;;8.33;7.63;;;5.90;99.90;;;;;;5002717;28;21096;-53
2022/12/22 04:45:00;;;;;;;7.33;6.80;;;5.90;99.90;;;;;;5010886;28;20543;-52
2022/12/22 04:47:27;;;;;;;8.20;7.50;;;5.80;99.90;;;;;;5011117;28;20539;-52
2022/12/22 04:49:54;;;;;;;7.83;7.10;;;5.90;99.90;;;;;;5009566;28;20574;-52
2022/12/22 04:52:21;;;;;;;7.83;7.23;;;5.80;99.90;;;;;;5004906;28;20483;-52
2022/12/22 04:54:47;;;;;;;7.73;6.93;;;5.80;99.90;;;;;;5011448;28;20508;-52
2022/12/22 04:57:15;;;;;;;10.30;7.50;;;5.80;99.90;;;;;;5010926;28;20554;-52
2022/12/22 04:59:42;;;;;;;8.60;7.90;;;5.90;99.90;;;;;;5007231;28;20490;-53
2022/12/22 05:02:09;;;;;;;16.97;15.30;;;5.90;99.90;;;;;;5008237;28;20522;-52
2022/12/22 05:04:36;;;;;;;22.60;19.47;;;5.90;99.90;;;;;;5009772;28;20493;-52
2022/12/22 05:07:02;;;;;;;9.00;8.30;;;6.00;99.90;;;;;;5011059;28;20543;-53
2022/12/22 05:09:29;;;;;;;7.50;6.90;;;6.00;99.90;;;;;;5018048;28;20460;-53
2022/12/22 05:11:55;;;;;;;6.67;6.27;;;6.00;99.90;;;;;;5007194;28;20574;-52
2022/12/22 05:14:23;;;;;;;8.93;7.70;;;6.00;99.90;;;;;;5005628;28;20571;-52
2022/12/22 05:16:50;;;;;;;9.77;7.50;;;5.90;99.90;;;;;;5010583;28;20476;-52
2022/12/22 05:19:17;;;;;;;9.57;8.67;;;6.00;99.90;;;;;;5012511;28;20499;-52
2022/12/22 05:21:44;;;;;;;8.33;7.60;;;6.10;99.90;;;;;;5010774;28;21119;-53
2022/12/22 05:24:10;;;;;;;11.03;9.93;;;6.10;99.90;;;;;;5006301;28;20461;-53
2022/12/22 05:26:37;;;;;;;9.40;8.50;;;6.20;99.90;;;;;;5009069;28;20550;-53
2022/12/22 05:29:04;;;;;;;7.80;7.20;;;6.30;99.90;;;;;;5003917;28;21204;-53
2022/12/22 05:31:31;;;;;;;7.73;7.03;;;6.30;99.90;;;;;;5008259;28;20596;-53
2022/12/22 05:33:58;;;;;;;9.23;8.07;;;6.40;99.90;;;;;;5006755;28;21048;-52
2022/12/22 05:36:24;;;;;;;9.57;8.77;;;6.50;99.90;;;;;;5007540;28;20483;-52
2022/12/22 05:38:51;;;;;;;8.20;7.47;;;6.50;99.90;;;;;;5007892;28;20551;-52
2022/12/22 05:41:18;;;;;;;13.00;8.90;;;6.70;99.90;;;;;;5009862;28;20903;-52
2022/12/22 05:43:44;;;;;;;9.13;8.23;;;6.70;99.90;;;;;;5005041;28;20611;-52
2022/12/22 05:46:11;;;;;;;8.50;7.80;;;6.70;99.90;;;;;;5011117;28;20518;-52
2022/12/22 05:48:39;;;;;;;10.17;9.30;;;6.80;99.90;;;;;;5007814;28;20546;-53
2022/12/22 05:51:08;;;;;;;9.70;8.90;;;6.80;99.90;;;;;;5002232;28;20575;-51
2022/12/22 05:53:34;;;;;;;11.00;8.50;;;6.80;99.90;;;;;;4996023;28;20504;-53
2022/12/22 05:56:01;;;;;;;10.00;8.93;;;6.90;99.90;;;;;;5009778;28;20551;-52
2022/12/22 05:58:28;;;;;;;11.83;10.17;;;6.90;99.90;;;;;;5007859;28;20496;-51
2022/12/22 06:00:56;;;;;;;13.27;9.50;;;6.90;99.90;;;;;;5009238;28;20514;-52
2022/12/22 06:03:23;;;;;;;10.47;9.47;;;6.90;99.90;;;;;;5012888;28;20490;-53
2022/12/22 06:05:51;;;;;;;10.60;9.60;;;6.90;99.90;;;;;;5012872;28;20522;-53
2022/12/22 06:08:17;;;;;;;10.30;9.40;;;7.00;99.90;;;;;;5010845;28;20902;-52
2022/12/22 06:10:44;;;;;;;10.13;8.77;;;7.00;99.90;;;;;;5021450;28;20546;-51
2022/12/22 06:13:11;;;;;;;10.27;9.27;;;7.00;99.90;;;;;;5013344;28;20627;-52
2022/12/22 06:15:37;;;;;;;11.73;8.80;;;7.00;99.90;;;;;;5012175;28;20575;-51
2022/12/22 06:18:04;;;;;;;9.77;8.87;;;7.00;99.90;;;;;;5009267;28;20574;-51
2022/12/22 06:20:30;;;;;;;15.20;10.13;;;7.00;99.90;;;;;;5014565;28;22354;-51
2022/12/22 06:22:58;;;;;;;10.37;9.37;;;7.00;99.90;;;;;;5011775;28;20494;-51
2022/12/22 06:25:25;;;;;;;10.13;9.07;;;7.00;99.90;;;;;;5012713;28;20558;-52
2022/12/22 06:27:51;;;;;;;9.80;8.90;;;7.00;99.90;;;;;;5002553;28;21625;-52
2022/12/22 06:30:18;;;;;;;11.70;10.50;;;7.00;99.90;;;;;;5008330;28;20555;-52
2022/12/22 06:32:44;;;;;;;10.47;9.57;;;7.00;99.90;;;;;;5008545;28;20542;-53
2022/12/22 06:35:11;;;;;;;9.60;8.80;;;7.00;99.90;;;;;;5007410;28;20961;-52
2022/12/22 06:37:37;;;;;;;12.37;9.93;;;7.00;99.90;;;;;;5014036;28;20463;-52
2022/12/22 06:40:08;;;;;;;10.20;9.20;;;7.00;99.90;;;;;;5014155;28;20903;-53
2022/12/22 06:45:19;;;;;;;11.00;9.90;;;7.00;99.90;;;;;;5002909;28;20815;-52
2022/12/22 06:47:45;;;;;;;10.77;9.77;;;7.00;99.90;;;;;;5011908;28;20614;-52
2022/12/22 06:50:12;;;;;;;11.00;10.00;;;7.00;99.90;;;;;;5013165;28;20513;-53
2022/12/22 06:52:39;;;;;;;11.20;10.10;;;7.10;99.90;;;;;;5007155;28;20534;-52
2022/12/22 06:55:07;;;;;;;12.83;10.20;;;7.00;99.90;;;;;;5011872;28;20456;-53
2022/12/22 06:57:34;;;;;;;11.57;10.47;;;7.10;99.90;;;;;;5013096;28;20475;-52
2022/12/22 07:00:00;;;;;;;11.10;10.10;;;7.10;99.90;;;;;;5012754;28;20526;-52
2022/12/22 07:02:27;;;;;;;11.47;10.27;;;7.10;99.90;;;;;;5007215;28;20572;-52
2022/12/22 07:04:54;;;;;;;10.93;9.93;;;7.10;99.90;;;;;;5013793;28;20443;-52
2022/12/22 07:07:20;;;;;;;11.30;10.20;;;7.10;99.90;;;;;;5010146;28;20598;-52
2022/12/22 07:09:47;;;;;;;11.30;10.30;;;7.10;99.90;;;;;;5006111;28;20513;-52
2022/12/22 07:12:15;;;;;;;11.90;10.77;;;7.10;99.90;;;;;;5003996;28;20579;-53
2022/12/22 07:14:42;;;;;;;10.70;9.60;;;7.10;99.90;;;;;;5003953;28;20822;-52
2022/12/22 07:17:08;;;;;;;11.40;10.20;;;7.10;99.90;;;;;;5012347;28;20475;-52
2022/12/22 07:19:35;;;;;;;11.80;10.70;;;7.10;99.90;;;;;;5012831;28;20463;-52
2022/12/22 07:22:01;;;;;;;10.93;9.93;;;7.10;99.90;;;;;;5008876;28;20483;-52
2022/12/22 07:24:28;;;;;;;10.13;9.33;;;7.10;99.90;;;;;;5006996;28;20597;-52
2022/12/22 07:26:55;;;;;;;10.20;9.30;;;7.10;99.90;;;;;;5008628;28;20455;-52
2022/12/22 07:29:23;;;;;;;10.37;9.37;;;7.10;99.90;;;;;;5009905;28;20943;-53
2022/12/22 07:31:50;;;;;;;10.53;9.53;;;7.20;99.90;;;;;;4998570;28;20603;-51
2022/12/22 07:34:16;;;;;;;12.40;10.33;;;7.20;99.90;;;;;;5000624;28;20527;-51
2022/12/22 07:36:43;;;;;;;11.60;10.60;;;7.20;99.90;;;;;;4996092;28;21041;-52
2022/12/22 07:39:11;;;;;;;11.30;10.27;;;7.20;99.90;;;;;;5003996;28;20895;-51
2022/12/22 07:44:23;;;;;;;10.00;9.07;;;7.20;99.90;;;;;;4999400;28;20459;-51
2022/12/22 07:46:50;;;;;;;10.83;9.80;;;7.20;99.90;;;;;;5005541;28;20452;-51
2022/12/22 07:52:01;;;;;;;10.77;9.80;;;7.20;99.90;;;;;;4991946;28;20494;-52
2022/12/22 07:54:28;;;;;;;10.43;9.53;;;7.20;99.90;;;;;;4995948;28;20520;-52
2022/12/22 07:56:55;;;;;;;10.30;9.30;;;7.30;99.90;;;;;;4997975;28;20455;-52
2022/12/22 07:59:23;;;;;;;11.40;10.10;;;7.30;99.90;;;;;;4995907;28;20466;-52
2022/12/22 08:01:49;;;;;;;10.00;9.10;;;7.30;99.90;;;;;;4997508;28;20574;-51
2022/12/22 08:04:16;;;;;;;9.93;9.10;;;7.30;99.90;;;;;;4996264;28;20551;-51
2022/12/22 08:06:43;;;;;;;10.27;9.10;;;7.30;99.90;;;;;;5000714;28;20493;-51
2022/12/22 08:09:14;;;;;;;11.47;10.40;;;7.30;99.90;;;;;;5002110;28;20523;-51
2022/12/22 08:11:40;;;;;;;10.70;9.70;;;7.40;99.90;;;;;;5005349;28;20571;-53
2022/12/22 08:14:07;;;;;;;10.90;9.90;;;7.40;99.90;;;;;;5006086;28;22579;-53
2022/12/22 08:16:35;;;;;;;12.37;11.30;;;7.40;99.90;;;;;;5007058;28;20522;-53
2022/12/22 08:19:01;;;;;;;10.43;9.47;;;7.50;99.90;;;;;;5008215;28;20547;-53
2022/12/22 08:21:28;;;;;;;9.88;8.93;;;7.50;99.90;;;;;;5002625;28;20540;-52
2022/12/22 08:23:55;;;;;;;11.03;9.93;;;7.50;99.90;;;;;;5013795;28;20295;-52
2022/12/22 08:26:24;;;;;;;11.30;10.20;;;7.50;99.90;;;;;;5007322;28;20455;-52
2022/12/22 08:28:56;;;;;;;10.70;9.70;;;7.50;99.90;;;;;;5009447;28;20550;-52
2022/12/22 08:31:25;;;;;;;14.43;9.77;;;7.50;99.90;;;;;;5008148;28;20598;-52
2022/12/22 08:33:54;;;;;;;9.33;8.37;;;7.50;99.90;;;;;;5015908;28;20542;-52
2022/12/22 08:36:21;;;;;;;9.60;8.70;;;7.50;99.90;;;;;;5008683;28;20621;-51
2022/12/22 08:38:48;;;;;;;10.03;9.10;;;7.60;99.90;;;;;;5007739;28;20555;-51
2022/12/22 08:41:48;;;;;;;9.63;8.83;;;7.60;99.90;;;;;;5002649;28;20563;-52
2022/12/22 08:44:02;;;;;;;11.23;9.10;;;7.60;99.90;;;;;;4997793;28;20456;-52
2022/12/22 08:46:29;;;;;;;10.63;9.73;;;7.60;99.90;;;;;;4998627;28;20590;-51
2022/12/22 08:48:56;;;;;;;9.40;8.50;;;7.60;99.90;;;;;;5009016;28;20890;-51
2022/12/22 08:51:23;;;;;;;10.47;9.17;;;7.60;99.90;;;;;;4999950;28;20594;-51
2022/12/22 08:53:50;;;;;;;9.93;9.13;;;7.70;99.90;;;;;;4992459;28;20594;-51
2022/12/22 08:56:16;;;;;;;9.83;8.77;;;7.70;99.90;;;;;;4994306;28;20558;-51
2022/12/22 08:58:43;;;;;;;25.07;9.50;;;7.70;99.90;;;;;;5001317;28;20992;-53
2022/12/22 09:01:15;;;;;;;9.10;8.40;;;7.80;99.90;;;;;;4986603;28;20501;-51
2022/12/22 09:03:42;;;;;;;9.03;8.33;;;7.80;99.90;;;;;;4991316;28;20550;-51
2022/12/22 09:06:10;;;;;;;10.60;9.60;;;7.70;99.90;;;;;;4990830;28;20563;-51
2022/12/22 09:08:36;;;;;;;9.13;8.43;;;7.80;99.90;;;;;;4997448;28;20562;-50
2022/12/22 09:11:04;;;;;;;10.23;9.33;;;7.80;99.90;;;;;;5003021;28;20582;-52
2022/12/22 09:13:30;;;;;;;10.90;9.80;;;7.70;99.90;;;;;;5007116;28;21057;-50
2022/12/22 09:15:57;;;;;;;9.70;8.80;;;7.80;99.90;;;;;;5009355;28;20874;-53
2022/12/22 09:18:24;;;;;;;9.30;8.50;;;7.80;99.90;;;;;;5009903;28;20460;-51
2022/12/22 09:20:54;;;;;;;9.67;8.77;;;7.80;99.90;;;;;;4999384;28;20578;-50
2022/12/22 09:23:22;;;;;;;10.60;9.50;;;7.80;99.90;;;;;;4995631;28;20874;-51
2022/12/22 09:25:49;;;;;;;9.10;8.30;;;7.80;99.90;;;;;;5000440;28;20554;-51
2022/12/22 09:28:15;;;;;;;8.87;8.07;;;7.80;99.90;;;;;;4994845;28;20485;-51
2022/12/22 09:30:42;;;;;;;9.63;8.70;;;7.80;99.90;;;;;;4992112;28;21099;-51
2022/12/22 09:33:08;;;;;;;9.90;9.00;;;7.90;99.90;;;;;;4996316;28;20514;-53
2022/12/22 09:35:35;;;;;;;10.53;9.30;;;7.80;99.90;;;;;;5004525;28;20658;-51
2022/12/22 09:38:01;;;;;;;9.40;8.50;;;7.80;99.90;;;;;;5007717;28;21048;-51
2022/12/22 09:40:31;;;;;;;9.03;8.17;;;7.80;99.90;;;;;;5003908;28;20547;-51
2022/12/22 09:42:59;;;;;;;9.70;8.80;;;7.90;99.90;;;;;;5004755;28;21005;-51
2022/12/22 09:45:25;;;;;;;12.13;8.80;;;7.90;99.90;;;;;;5002644;28;20563;-52
2022/12/22 09:47:55;;;;;;;9.57;8.57;;;7.90;99.90;;;;;;5000858;28;20551;-51
2022/12/22 09:50:24;;;;;;;10.47;8.73;;;8.00;99.90;;;;;;5010201;28;20463;-51
2022/12/22 09:52:53;;;;;;;10.20;9.20;;;7.90;99.90;;;;;;5014465;28;20563;-51
2022/12/22 09:55:37;;;;;;;13.90;8.20;;;8.00;99.90;;;;;;5002948;28;20978;-51
2022/12/22 09:58:03;;;;;;;9.00;8.20;;;8.00;99.90;;;;;;5007602;28;20546;-52
2022/12/22 10:00:30;;;;;;;12.37;8.73;;;8.10;99.90;;;;;;5008186;28;20558;-52
2022/12/22 10:03:06;;;;;;;9.10;8.20;;;8.00;99.90;;;;;;5017901;28;20518;-52
2022/12/22 10:05:40;;;;;;;9.27;8.30;;;8.00;99.90;;;;;;5006948;28;20470;-52
2022/12/22 10:08:11;;;;;;;9.73;7.83;;;8.00;99.90;;;;;;5002999;28;20558;-52
2022/12/22 10:10:39;;;;;;;9.03;8.10;;;8.00;99.90;;;;;;5001463;28;20487;-54
2022/12/22 10:13:07;;;;;;;9.57;8.67;;;8.00;99.90;;;;;;5001807;28;21017;-54
2022/12/22 10:15:38;;;;;;;8.83;8.03;;;8.00;99.90;;;;;;5022755;28;20549;-53
2022/12/22 10:18:11;;;;;;;9.50;7.47;;;7.90;99.90;;;;;;5012342;28;20495;-54
2022/12/22 10:20:38;;;;;;;9.00;7.57;;;8.00;99.90;;;;;;5006144;28;21084;-55
2022/12/22 10:23:16;;;;;;;6.80;6.30;;;8.00;99.90;;;;;;5003691;28;20547;-54
2022/12/22 10:25:59;;;;;;;8.17;7.37;;;8.00;99.90;;;;;;5035459;23;20532;-56
2022/12/22 10:28:29;;;;;;;8.17;7.47;;;8.00;99.90;;;;;;5043876;28;20500;-58
2022/12/22 10:31:12;;;;;;;8.57;7.43;;;8.00;99.90;;;;;;5044196;28;21579;-57
2022/12/22 10:33:40;;;;;;;7.53;6.80;;;8.00;99.90;;;;;;5033757;28;20578;-56
2022/12/22 10:36:07;;;;;;;8.43;7.67;;;8.00;99.90;;;;;;5041159;28;20582;-57
2022/12/22 10:38:36;;;;;;;7.70;7.03;;;7.90;99.90;;;;;;5043210;28;20904;-56
2022/12/22 10:41:14;;;;;;;9.27;7.80;;;8.00;99.90;;;;;;5040901;28;20549;-56
2022/12/22 10:43:48;;;;;;;7.73;6.93;;;8.00;99.90;;;;;;5037163;28;20561;-56
2022/12/22 10:46:15;;;;;;;7.23;6.60;;;8.00;99.90;;;;;;5040756;28;20567;-57
2022/12/22 10:48:42;;;;;;;7.70;6.90;;;8.00;99.90;;;;;;5039584;28;20489;-57
2022/12/22 10:51:11;;;;;;;8.43;7.73;;;8.00;99.90;;;;;;5044631;28;21097;-57
2022/12/22 10:53:46;;;;;;;10.33;8.47;;;8.00;99.90;;;;;;5046547;28;20605;-57
2022/12/22 10:56:24;;;;;;;7.73;6.97;;;8.00;99.90;;;;;;5047924;28;20560;-57
2022/12/22 10:58:52;;;;;;;7.67;6.90;;;8.00;99.90;;;;;;5050049;28;20540;-57
2022/12/22 11:01:29;;;;;;;8.20;7.30;;;8.00;99.90;;;;;;5046040;28;20552;-55
2022/12/22 11:03:55;;;;;;;7.27;6.70;;;8.00;99.90;;;;;;5046805;28;21048;-55
2022/12/22 11:06:22;;;;;;;9.17;8.20;;;8.00;99.90;;;;;;5049999;28;20493;-56
2022/12/22 11:08:49;;;;;;;8.43;7.70;;;8.00;99.90;;;;;;5050645;28;20457;-50
2022/12/22 11:11:30;;;;;;;7.20;6.50;;;8.00;99.90;;;;;;5049724;28;20946;-56
2022/12/22 11:14:08;;;;;;;8.77;6.37;;;8.10;99.90;;;;;;5049290;28;20484;-52
2022/12/22 11:16:41;;;;;;;7.43;6.83;;;8.10;99.90;;;;;;5049137;28;20970;-53
2022/12/22 11:19:32;;;;;;;14.57;8.57;;;8.10;99.90;;;;;;5049942;28;20489;-52
2022/12/22 11:22:24;;;;;;;10.07;9.00;;;8.10;99.90;;;;;;5035478;28;20450;-50
2022/12/22 11:25:09;;;;;;;9.10;7.67;;;8.20;99.90;;;;;;5053790;28;20904;-51
2022/12/22 11:27:46;;;;;;;11.23;8.27;;;8.20;99.90;;;;;;5052609;28;21032;-52
2022/12/22 11:30:15;;;;;;;11.57;10.20;;;8.20;99.90;;;;;;5044073;28;20983;-52
2022/12/22 11:33:03;;;;;;;14.50;7.30;;;8.20;99.90;;;;;;5053704;28;20509;-52
2022/12/22 11:35:45;;;;;;;7.50;6.90;;;8.10;99.90;;;;;;5049467;28;20462;-53
2022/12/22 11:38:20;;;;;;;8.37;7.57;;;8.10;99.90;;;;;;5046046;28;20557;-52
2022/12/22 11:40:50;;;;;;;8.43;7.63;;;8.10;99.90;;;;;;5052067;28;20839;-52
2022/12/22 11:43:25;;;;;;;7.73;7.13;;;8.20;99.90;;;;;;5049515;28;20545;-52
2022/12/22 11:46:02;;;;;;;8.10;7.40;;;8.20;99.90;;;;;;5050814;28;20574;-53
2022/12/22 11:49:05;;;;;;;9.50;7.30;;;8.20;99.90;;;;;;5047096;28;21152;-53
2022/12/22 11:51:48;;;;;;;8.30;7.50;;;8.20;99.90;;;;;;5025585;28;20488;-52
2022/12/22 11:54:42;;;;;;;7.57;6.83;;;8.20;99.90;;;;;;5048390;28;20561;-52
2022/12/22 11:57:18;;;;;;;13.83;9.47;;;8.20;99.90;;;;;;5048208;28;20465;-52
2022/12/22 11:59:56;;;;;;;7.87;7.17;;;8.30;99.90;;;;;;5049012;28;20967;-52
2022/12/22 12:02:59;;;;;;;10.90;8.70;;;8.20;99.90;;;;;;5042363;28;20455;-52
2022/12/22 12:05:49;;;;;;;9.23;8.40;;;8.20;99.90;;;;;;5045615;28;20538;-52
2022/12/22 12:08:28;;;;;;;10.30;9.00;;;8.30;99.90;;;;;;5047348;28;20556;-52
2022/12/22 12:11:03;;;;;;;10.00;7.57;;;8.20;99.90;;;;;;5050643;28;20470;-52
2022/12/22 12:13:38;;;;;;;11.10;7.47;;;8.20;99.90;;;;;;5050520;28;20572;-53
2022/12/22 12:16:17;;;;;;;8.77;7.80;;;8.20;99.90;;;;;;5046651;28;20852;-52
2022/12/22 12:19:02;;;;;;;7.47;6.87;;;8.20;99.90;;;;;;5046808;28;20466;-52
2022/12/22 12:21:31;;;;;;;8.47;7.67;;;8.20;99.90;;;;;;5046979;28;20670;-53
2022/12/22 12:24:18;;;;;;;9.03;8.17;;;8.30;99.90;;;;;;5049919;28;20489;-52
2022/12/22 12:26:52;;;;;;;9.30;7.63;;;8.30;99.90;;;;;;5038032;28;20660;-52
2022/12/22 12:29:21;;;;;;;8.27;7.57;;;8.30;99.90;;;;;;5042520;28;20566;-49
2022/12/22 12:31:58;;;;;;;10.20;9.20;;;8.30;99.90;;;;;;5049157;28;21301;-51
2022/12/22 12:34:26;;;;;;;11.30;8.70;;;8.20;99.90;;;;;;5049506;28;21022;-53
2022/12/22 12:37:01;;;;;;;9.00;8.10;;;8.30;99.90;;;;;;5048610;28;20497;-56
2022/12/22 12:39:34;;;;;;;8.03;7.10;;;8.30;99.90;;;;;;5049442;28;20481;-55
2022/12/22 12:42:10;;;;;;;8.20;7.50;;;8.20;99.90;;;;;;5045735;28;20462;-53
2022/12/22 12:44:38;;;;;;;9.00;8.13;;;8.20;99.90;;;;;;5049433;28;20611;-53
2022/12/22 12:47:20;;;;;;;8.30;7.50;;;8.20;99.90;;;;;;5050179;28;20489;-52
2022/12/22 12:49:57;;;;;;;7.80;7.20;;;8.20;99.90;;;;;;5046032;28;20453;-52
2022/12/22 12:52:57;;;;;;;12.03;7.80;;;8.20;99.90;;;;;;5045706;28;20509;-51
2022/12/22 12:55:25;;;;;;;9.20;5.57;;;8.20;99.90;;;;;;5042167;28;20520;-50
2022/12/22 12:57:52;;;;;;;7.30;6.60;;;8.20;99.90;;;;;;5043779;28;20537;-50
2022/12/22 13:00:45;;;;;;;8.13;7.40;;;8.10;99.90;;;;;;5038714;28;20466;-51
2022/12/22 13:03:37;;;;;;;8.80;5.57;;;8.10;99.90;;;;;;5049024;28;20474;-50
2022/12/22 13:06:07;;;;;;;8.27;7.57;;;8.10;99.90;;;;;;5044332;28;20482;-51
2022/12/22 13:08:55;;;;;;;7.07;6.40;;;8.10;99.90;;;;;;5048017;28;20573;-50
2022/12/22 13:11:33;;;;;;;9.67;7.70;;;8.10;99.90;;;;;;5046006;28;20943;-51
2022/12/22 13:14:00;;;;;;;9.80;6.40;;;8.10;99.90;;;;;;5043369;28;20647;-51
2022/12/22 13:16:33;;;;;;;10.07;6.93;;;8.10;99.90;;;;;;5050896;28;21046;-51
2022/12/22 13:19:31;;;;;;;6.80;6.20;;;8.10;99.90;;;;;;5032616;28;20551;-50
2022/12/22 13:22:01;;;;;;;7.40;4.43;;;8.10;99.90;;;;;;5018630;28;20474;-52
2022/12/22 13:24:33;;;;;;;5.73;5.23;;;8.10;99.90;;;;;;5038828;28;20548;-51
2022/12/22 13:27:06;;;;;;;8.00;7.40;;;8.10;99.90;;;;;;5044341;28;20556;-50
2022/12/22 13:29:45;;;;;;;9.17;8.40;;;8.10;99.90;;;;;;5039980;28;20557;-51
2022/12/22 13:32:20;;;;;;;38.17;7.23;;;8.10;99.90;;;;;;5041085;28;20566;-50
2022/12/22 13:34:56;;;;;;;13.20;9.70;;;8.10;99.90;;;;;;5032731;28;20490;-50
2022/12/22 13:37:26;;;;;;;17.40;14.63;;;8.10;99.90;;;;;;5034773;28;21054;-51
2022/12/22 13:40:17;;;;;;;15.53;13.33;;;8.20;99.90;;;;;;5041185;28;20959;-51
2022/12/22 13:42:46;;;;;;;13.10;11.80;;;8.10;99.90;;;;;;5040192;28;20590;-51
2022/12/22 13:45:20;;;;;;;12.33;10.40;;;8.20;99.90;;;;;;5041674;28;20561;-51
2022/12/22 13:47:48;;;;;;;15.20;11.57;;;8.20;99.90;;;;;;5038583;28;20553;-51
2022/12/22 13:50:22;;;;;;;12.80;10.67;;;8.20;99.90;;;;;;5038318;28;20552;-50
2022/12/22 13:52:51;;;;;;;11.50;10.27;;;8.20;99.90;;;;;;5034697;28;21074;-52
2022/12/22 13:55:23;;;;;;;11.20;10.07;;;8.20;99.90;;;;;;5037838;28;20510;-51
2022/12/22 13:57:51;;;;;;;10.43;9.50;;;8.20;99.90;;;;;;5038022;28;20549;-52
2022/12/22 14:00:21;;;;;;;9.13;8.30;;;8.10;99.90;;;;;;5036865;28;20519;-51
2022/12/22 14:02:48;;;;;;;9.53;8.60;;;8.20;99.90;;;;;;5036283;28;21013;-50
2022/12/22 14:05:15;;;;;;;10.27;9.23;;;8.20;99.90;;;;;;5041929;28;20552;-51
2022/12/22 14:10:39;;;;;;;7.83;7.17;;;8.20;99.90;;;;;;5074393;27;20534;-51
2022/12/22 14:13:11;;;;;;;12.30;8.00;;;8.20;99.90;;;;;;5053803;28;20856;-51
2022/12/22 14:15:38;;;;;;;8.17;7.47;;;8.10;99.90;;;;;;5043494;28;20619;-51
2022/12/22 14:18:06;;;;;;;8.23;7.43;;;8.10;99.90;;;;;;5033432;28;20481;-50
2022/12/22 14:20:35;;;;;;;8.63;7.83;;;8.20;99.90;;;;;;5037930;28;20465;-52
2022/12/22 14:23:06;;;;;;;8.40;7.70;;;8.10;99.90;;;;;;5039487;28;20553;-51
2022/12/22 14:25:36;;;;;;;8.77;7.87;;;8.20;99.90;;;;;;5034904;28;20510;-51
2022/12/22 14:28:05;;;;;;;8.30;7.20;;;8.10;99.90;;;;;;5037477;28;20454;-51
2022/12/22 14:30:35;;;;;;;8.10;7.40;;;8.20;99.90;;;;;;5037734;28;20561;-51
2022/12/22 14:33:26;;;;;;;6.93;6.40;;;8.10;99.90;;;;;;5038553;28;20544;-50
2022/12/22 14:36:14;;;;;;;7.43;6.73;;;8.10;99.90;;;;;;5034596;28;20543;-51
2022/12/22 14:38:42;;;;;;;7.33;6.63;;;8.10;99.90;;;;;;5033431;28;20459;-50
2022/12/22 14:41:40;;;;;;;6.47;5.97;;;8.10;99.90;;;;;;5031886;28;20458;-50
2022/12/22 14:44:00;;;;;;;7.17;6.57;;;8.10;99.90;;;;;;5031622;28;20450;-51
2022/12/22 14:46:27;;;;;;;8.47;6.60;;;8.20;99.90;;;;;;5036234;28;20581;-51
2022/12/22 14:48:53;;;;;;;6.70;5.97;;;8.10;99.90;;;;;;5032863;28;22594;-50
2022/12/22 14:51:21;;;;;;;7.27;6.67;;;8.20;99.90;;;;;;5043348;28;20552;-50
2022/12/22 14:53:52;;;;;;;5.93;5.40;;;8.10;99.90;;;;;;5045009;28;20504;-50
2022/12/22 14:56:21;;;;;;;6.77;6.17;;;8.20;99.90;;;;;;5047241;28;20907;-50
2022/12/22 14:58:49;;;;;;;6.10;5.50;;;8.20;99.90;;;;;;5037669;28;21084;-51
2022/12/22 15:01:19;;;;;;;5.27;4.87;;;8.20;99.90;;;;;;5036578;28;20457;-50
2022/12/22 15:03:59;;;;;;;6.43;5.17;;;8.20;99.90;;;;;;5029519;28;20458;-50
2022/12/22 15:06:36;;;;;;;5.33;4.93;;;8.20;99.90;;;;;;5031936;28;20605;-51
2022/12/22 15:09:28;;;;;;;7.20;5.27;;;8.10;99.90;;;;;;5037605;28;20563;-50
2022/12/22 15:12:02;;;;;;;6.77;6.13;;;8.20;99.90;;;;;;5038433;28;20458;-51
2022/12/22 15:14:31;;;;;;;6.20;5.57;;;8.20;99.90;;;;;;5034463;28;22761;-51
2022/12/22 15:17:00;;;;;;;5.60;4.97;;;8.20;99.90;;;;;;5037925;28;20585;-51
2022/12/22 15:19:30;;;;;;;5.70;5.20;;;8.20;99.90;;;;;;5030166;28;20461;-51
2022/12/22 15:21:57;;;;;;;5.33;4.83;;;8.20;99.90;;;;;;5014814;28;20482;-52
2022/12/22 15:24:24;;;;;;;5.77;5.23;;;8.20;99.90;;;;;;5025292;28;20458;-52
2022/12/22 15:26:51;;;;;;;6.00;5.03;;;8.20;99.90;;;;;;5024781;28;20502;-51
2022/12/22 15:29:19;;;;;;;4.80;4.50;;;8.20;99.90;;;;;;5033741;28;20501;-51
2022/12/22 15:31:46;;;;;;;5.60;4.23;;;8.20;99.90;;;;;;5029101;28;20467;-51
2022/12/22 15:34:16;;;;;;;4.40;4.20;;;8.20;99.90;;;;;;5031891;28;20995;-51
2022/12/22 15:36:42;;;;;;;5.30;5.00;;;8.20;99.90;;;;;;5023914;28;21035;-51
2022/12/22 15:39:16;;;;;;;5.20;4.70;;;8.20;99.90;;;;;;5033061;28;20509;-51
2022/12/22 15:41:43;;;;;;;5.20;4.80;;;8.20;99.90;;;;;;5031222;28;22316;-51
2022/12/22 15:44:10;;;;;;;5.83;5.33;;;8.20;99.90;;;;;;5022096;28;21095;-51
2022/12/22 15:46:39;;;;;;;6.70;6.20;;;8.10;99.90;;;;;;5023291;28;21019;-50
2022/12/22 15:49:12;;;;;;;5.03;4.73;;;8.10;99.90;;;;;;5022806;28;20575;-51
2022/12/22 15:51:39;;;;;;;6.97;6.40;;;8.10;99.90;;;;;;5027709;28;20490;-52
2022/12/22 15:54:07;;;;;;;6.13;5.63;;;8.10;99.90;;;;;;5029958;28;20476;-51
2022/12/22 15:56:33;;;;;;;6.97;6.40;;;8.00;99.90;;;;;;5031198;28;20517;-51
2022/12/22 15:59:01;;;;;;;6.40;5.90;;;8.00;99.90;;;;;;5032733;28;20470;-51
2022/12/22 16:01:27;;;;;;;9.37;7.00;;;8.00;99.90;;;;;;5025705;28;21014;-52
2022/12/22 16:03:55;;;;;;;7.10;6.57;;;8.00;99.90;;;;;;5035815;28;20482;-52
2022/12/22 16:06:22;;;;;;;7.47;6.80;;;8.00;99.90;;;;;;5033290;28;20491;-50
2022/12/22 16:08:51;;;;;;;8.77;8.00;;;8.00;99.90;;;;;;5031898;28;20514;-50
2022/12/22 16:11:18;;;;;;;7.40;6.80;;;8.00;99.90;;;;;;5029475;28;20832;-50
2022/12/22 16:13:46;;;;;;;7.50;6.80;;;7.90;99.90;;;;;;5038611;28;20457;-51
2022/12/22 16:16:13;;;;;;;8.43;7.73;;;7.90;99.90;;;;;;5036519;28;20510;-51
2022/12/22 16:18:39;;;;;;;8.77;8.07;;;7.80;99.90;;;;;;5034547;28;21111;-50
2022/12/22 16:21:14;;;;;;;8.33;7.53;;;7.80;99.90;;;;;;5030310;28;20558;-51
2022/12/22 16:23:42;;;;;;;7.83;7.13;;;7.70;99.90;;;;;;5034479;28;20495;-50
2022/12/22 16:26:14;;;;;;;8.40;7.70;;;7.60;99.90;;;;;;5015504;28;20609;-50
2022/12/22 16:28:41;;;;;;;8.90;8.10;;;7.60;99.90;;;;;;5021451;28;20463;-51
2022/12/22 16:31:16;;;;;;;9.70;8.50;;;7.50;99.90;;;;;;5026751;28;20926;-51
2022/12/22 16:33:42;;;;;;;8.60;7.70;;;7.40;99.90;;;;;;5029718;28;20477;-52
2022/12/22 16:36:10;;;;;;;9.30;8.50;;;7.40;99.90;;;;;;5031488;28;20886;-51
2022/12/22 16:38:38;;;;;;;11.40;10.20;;;7.30;99.90;;;;;;5060699;23;21004;-52
2022/12/22 16:41:06;;;;;;;11.80;10.60;;;7.30;99.90;;;;;;5016241;28;20486;-51
2022/12/22 16:43:37;;;;;;;12.73;11.10;;;7.30;99.90;;;;;;5029607;28;20487;-53
2022/12/22 16:46:05;;;;;;;10.10;9.13;;;7.20;99.90;;;;;;5025822;28;20452;-52
2022/12/22 16:48:34;;;;;;;12.07;10.70;;;7.30;99.90;;;;;;5028145;28;20463;-51
2022/12/22 16:51:01;;;;;;;12.40;11.00;;;7.40;99.90;;;;;;4998250;28;20488;-53
2022/12/22 16:53:29;;;;;;;12.70;11.43;;;7.40;99.90;;;;;;5009227;28;20551;-52
2022/12/22 16:55:57;;;;;;;12.40;11.20;;;7.50;99.90;;;;;;5002710;28;20564;-52